sensor_id;sensor_type;location;lat;lon;timestamp;temperature;humidity
55313;DHT22;46892;45.668;11.756;2023-06-22T00:01:58;24.50;76.20
55313;DHT22;46892;45.668;11.756;2023-06-22T00:04:24;24.40;76.00
55313;DHT22;46892;45.668;11.756;2023-06-22T00:06:50;24.50;76.20
55313;DHT22;46892;45.668;11.756;2023-06-22T00:09:16;24.50;75.70
55313;DHT22;46892;45.668;11.756;2023-06-22T00:11:42;24.50;75.30
55313;DHT22;46892;45.668;11.756;2023-06-22T00:14:08;24.50;75.20
55313;DHT22;46892;45.668;11.756;2023-06-22T00:16:33;24.40;75.90
55313;DHT22;46892;45.668;11.756;2023-06-22T00:19:00;24.50;75.90
55313;DHT22;46892;45.668;11.756;2023-06-22T00:21:29;24.50;76.50
55313;DHT22;46892;45.668;11.756;2023-06-22T00:23:55;24.40;76.80
55313;DHT22;46892;45.668;11.756;2023-06-22T00:26:22;24.30;76.80
55313;DHT22;46892;45.668;11.756;2023-06-22T00:28:48;24.30;76.40
55313;DHT22;46892;45.668;11.756;2023-06-22T00:31:14;24.30;76.40
55313;DHT22;46892;45.668;11.756;2023-06-22T00:33:40;24.20;76.80
55313;DHT22;46892;45.668;11.756;2023-06-22T00:36:06;24.20;76.80
55313;DHT22;46892;45.668;11.756;2023-06-22T00:38:33;24.20;77.50
55313;DHT22;46892;45.668;11.756;2023-06-22T00:40:59;24.20;77.40
55313;DHT22;46892;45.668;11.756;2023-06-22T00:43:25;24.20;77.30
55313;DHT22;46892;45.668;11.756;2023-06-22T00:45:50;24.20;77.80
55313;DHT22;46892;45.668;11.756;2023-06-22T00:48:16;24.20;77.70
55313;DHT22;46892;45.668;11.756;2023-06-22T00:50:42;24.10;77.60
55313;DHT22;46892;45.668;11.756;2023-06-22T00:53:09;24.00;77.70
55313;DHT22;46892;45.668;11.756;2023-06-22T00:55:44;24.00;78.50
55313;DHT22;46892;45.668;11.756;2023-06-22T00:58:13;23.90;78.40
55313;DHT22;46892;45.668;11.756;2023-06-22T01:00:40;24.00;77.80
55313;DHT22;46892;45.668;11.756;2023-06-22T01:03:06;24.00;77.50
55313;DHT22;46892;45.668;11.756;2023-06-22T01:05:36;24.00;77.60
55313;DHT22;46892;45.668;11.756;2023-06-22T01:16:08;23.50;78.60
55313;DHT22;46892;45.668;11.756;2023-06-22T01:18:37;23.50;78.90
55313;DHT22;46892;45.668;11.756;2023-06-22T01:21:06;23.50;79.10
55313;DHT22;46892;45.668;11.756;2023-06-22T01:23:51;23.50;79.20
55313;DHT22;46892;45.668;11.756;2023-06-22T01:26:37;23.50;79.20
55313;DHT22;46892;45.668;11.756;2023-06-22T01:29:04;23.50;79.10
55313;DHT22;46892;45.668;11.756;2023-06-22T01:31:33;23.60;79.00
55313;DHT22;46892;45.668;11.756;2023-06-22T01:34:04;23.60;78.50
55313;DHT22;46892;45.668;11.756;2023-06-22T01:36:31;23.70;78.10
55313;DHT22;46892;45.668;11.756;2023-06-22T01:38:58;23.60;78.30
55313;DHT22;46892;45.668;11.756;2023-06-22T01:41:29;23.50;78.70
55313;DHT22;46892;45.668;11.756;2023-06-22T01:43:56;23.40;79.00
55313;DHT22;46892;45.668;11.756;2023-06-22T01:46:22;23.30;79.30
55313;DHT22;46892;45.668;11.756;2023-06-22T01:48:49;23.30;79.40
55313;DHT22;46892;45.668;11.756;2023-06-22T01:51:16;23.30;79.20
55313;DHT22;46892;45.668;11.756;2023-06-22T01:53:42;23.30;79.80
55313;DHT22;46892;45.668;11.756;2023-06-22T01:56:08;23.30;79.70
55313;DHT22;46892;45.668;11.756;2023-06-22T01:58:37;23.30;79.90
55313;DHT22;46892;45.668;11.756;2023-06-22T02:01:13;23.30;79.80
55313;DHT22;46892;45.668;11.756;2023-06-22T02:03:55;23.30;79.30
55313;DHT22;46892;45.668;11.756;2023-06-22T02:06:31;23.30;79.30
55313;DHT22;46892;45.668;11.756;2023-06-22T02:09:02;23.20;79.60
55313;DHT22;46892;45.668;11.756;2023-06-22T02:11:32;23.00;79.90
55313;DHT22;46892;45.668;11.756;2023-06-22T02:13:59;23.10;80.30
55313;DHT22;46892;45.668;11.756;2023-06-22T02:16:25;23.20;79.80
55313;DHT22;46892;45.668;11.756;2023-06-22T02:18:55;23.10;79.70
55313;DHT22;46892;45.668;11.756;2023-06-22T02:21:21;23.10;80.40
55313;DHT22;46892;45.668;11.756;2023-06-22T02:23:47;23.20;79.90
55313;DHT22;46892;45.668;11.756;2023-06-22T02:26:13;23.20;79.90
55313;DHT22;46892;45.668;11.756;2023-06-22T02:28:39;23.10;80.00
55313;DHT22;46892;45.668;11.756;2023-06-22T02:31:05;23.20;79.70
55313;DHT22;46892;45.668;11.756;2023-06-22T02:33:30;23.20;79.40
55313;DHT22;46892;45.668;11.756;2023-06-22T02:35:56;23.20;79.30
55313;DHT22;46892;45.668;11.756;2023-06-22T02:38:22;23.20;79.40
55313;DHT22;46892;45.668;11.756;2023-06-22T02:40:50;23.20;79.20
55313;DHT22;46892;45.668;11.756;2023-06-22T02:43:16;23.30;79.10
55313;DHT22;46892;45.668;11.756;2023-06-22T02:45:42;23.30;79.20
55313;DHT22;46892;45.668;11.756;2023-06-22T02:48:08;23.20;79.40
55313;DHT22;46892;45.668;11.756;2023-06-22T02:50:33;23.20;79.60
55313;DHT22;46892;45.668;11.756;2023-06-22T02:52:59;23.20;79.30
55313;DHT22;46892;45.668;11.756;2023-06-22T02:55:25;23.10;79.80
55313;DHT22;46892;45.668;11.756;2023-06-22T02:57:50;23.00;80.00
55313;DHT22;46892;45.668;11.756;2023-06-22T03:00:18;23.00;80.30
55313;DHT22;46892;45.668;11.756;2023-06-22T03:02:48;23.00;80.50
55313;DHT22;46892;45.668;11.756;2023-06-22T03:05:14;23.00;80.50
55313;DHT22;46892;45.668;11.756;2023-06-22T03:07:44;23.00;80.30
55313;DHT22;46892;45.668;11.756;2023-06-22T03:10:11;23.00;80.10
55313;DHT22;46892;45.668;11.756;2023-06-22T03:12:38;23.00;80.60
55313;DHT22;46892;45.668;11.756;2023-06-22T03:15:05;22.90;80.70
55313;DHT22;46892;45.668;11.756;2023-06-22T03:17:31;22.90;80.80
55313;DHT22;46892;45.668;11.756;2023-06-22T03:19:57;22.80;81.00
55313;DHT22;46892;45.668;11.756;2023-06-22T03:22:23;22.80;81.10
55313;DHT22;46892;45.668;11.756;2023-06-22T03:24:49;22.80;81.30
55313;DHT22;46892;45.668;11.756;2023-06-22T03:27:14;22.70;81.30
55313;DHT22;46892;45.668;11.756;2023-06-22T03:29:40;22.70;81.40
55313;DHT22;46892;45.668;11.756;2023-06-22T03:32:06;22.70;81.40
55313;DHT22;46892;45.668;11.756;2023-06-22T03:34:32;22.70;81.40
55313;DHT22;46892;45.668;11.756;2023-06-22T03:37:04;22.60;81.50
55313;DHT22;46892;45.668;11.756;2023-06-22T03:39:31;22.70;81.50
55313;DHT22;46892;45.668;11.756;2023-06-22T03:41:56;22.70;81.40
55313;DHT22;46892;45.668;11.756;2023-06-22T03:44:22;22.70;81.50
55313;DHT22;46892;45.668;11.756;2023-06-22T03:46:48;22.70;81.60
55313;DHT22;46892;45.668;11.756;2023-06-22T03:49:13;22.80;81.40
55313;DHT22;46892;45.668;11.756;2023-06-22T03:51:39;22.80;81.00
55313;DHT22;46892;45.668;11.756;2023-06-22T03:54:05;22.80;81.40
55313;DHT22;46892;45.668;11.756;2023-06-22T03:56:31;22.80;81.00
55313;DHT22;46892;45.668;11.756;2023-06-22T03:58:57;22.70;81.10
55313;DHT22;46892;45.668;11.756;2023-06-22T04:01:22;22.80;80.70
55313;DHT22;46892;45.668;11.756;2023-06-22T04:03:48;22.80;80.80
55313;DHT22;46892;45.668;11.756;2023-06-22T04:06:15;22.80;81.10
55313;DHT22;46892;45.668;11.756;2023-06-22T04:08:40;22.70;81.00
55313;DHT22;46892;45.668;11.756;2023-06-22T04:11:06;22.80;81.20
55313;DHT22;46892;45.668;11.756;2023-06-22T04:13:32;22.80;81.20
55313;DHT22;46892;45.668;11.756;2023-06-22T04:15:57;22.80;81.30
55313;DHT22;46892;45.668;11.756;2023-06-22T04:18:23;22.80;81.30
55313;DHT22;46892;45.668;11.756;2023-06-22T04:20:49;22.80;81.50
55313;DHT22;46892;45.668;11.756;2023-06-22T04:23:15;22.90;81.80
55313;DHT22;46892;45.668;11.756;2023-06-22T04:25:41;22.80;81.90
55313;DHT22;46892;45.668;11.756;2023-06-22T04:28:06;22.80;81.80
55313;DHT22;46892;45.668;11.756;2023-06-22T04:30:37;22.80;82.20
55313;DHT22;46892;45.668;11.756;2023-06-22T04:33:12;22.90;81.80
55313;DHT22;46892;45.668;11.756;2023-06-22T04:35:38;22.90;81.70
55313;DHT22;46892;45.668;11.756;2023-06-22T04:38:07;23.00;82.60
55313;DHT22;46892;45.668;11.756;2023-06-22T04:40:33;23.00;82.70
55313;DHT22;46892;45.668;11.756;2023-06-22T04:42:58;23.20;82.20
55313;DHT22;46892;45.668;11.756;2023-06-22T04:45:28;23.20;82.30
55313;DHT22;46892;45.668;11.756;2023-06-22T04:47:54;23.30;81.70
55313;DHT22;46892;45.668;11.756;2023-06-22T04:50:20;23.40;81.30
55313;DHT22;46892;45.668;11.756;2023-06-22T04:52:47;23.50;81.80
55313;DHT22;46892;45.668;11.756;2023-06-22T04:55:13;23.60;82.30
55313;DHT22;46892;45.668;11.756;2023-06-22T04:57:44;23.70;81.20
55313;DHT22;46892;45.668;11.756;2023-06-22T05:00:17;23.80;81.40
55313;DHT22;46892;45.668;11.756;2023-06-22T05:02:45;24.00;81.00
55313;DHT22;46892;45.668;11.756;2023-06-22T05:05:13;24.10;80.20
55313;DHT22;46892;45.668;11.756;2023-06-22T05:07:41;24.20;81.00
55313;DHT22;46892;45.668;11.756;2023-06-22T05:10:09;24.30;80.80
55313;DHT22;46892;45.668;11.756;2023-06-22T05:12:36;24.60;79.50
55313;DHT22;46892;45.668;11.756;2023-06-22T05:15:02;24.80;79.00
55313;DHT22;46892;45.668;11.756;2023-06-22T05:17:28;25.00;79.50
55313;DHT22;46892;45.668;11.756;2023-06-22T05:19:54;25.10;79.70
55313;DHT22;46892;45.668;11.756;2023-06-22T05:22:20;25.10;79.50
55313;DHT22;46892;45.668;11.756;2023-06-22T05:24:46;25.20;77.90
55313;DHT22;46892;45.668;11.756;2023-06-22T05:27:12;25.20;77.20
55313;DHT22;46892;45.668;11.756;2023-06-22T05:29:38;25.20;78.20
55313;DHT22;46892;45.668;11.756;2023-06-22T05:32:04;25.30;78.00
55313;DHT22;46892;45.668;11.756;2023-06-22T05:34:30;25.30;77.60
55313;DHT22;46892;45.668;11.756;2023-06-22T05:36:56;25.30;76.70
55313;DHT22;46892;45.668;11.756;2023-06-22T05:39:24;25.40;76.00
55313;DHT22;46892;45.668;11.756;2023-06-22T05:41:51;25.50;76.40
55313;DHT22;46892;45.668;11.756;2023-06-22T05:44:16;25.60;76.20
55313;DHT22;46892;45.668;11.756;2023-06-22T05:46:43;25.70;74.90
55313;DHT22;46892;45.668;11.756;2023-06-22T05:49:13;25.70;75.10
55313;DHT22;46892;45.668;11.756;2023-06-22T05:51:40;25.80;74.30
55313;DHT22;46892;45.668;11.756;2023-06-22T05:54:06;25.90;74.10
55313;DHT22;46892;45.668;11.756;2023-06-22T05:56:34;26.00;74.20
55313;DHT22;46892;45.668;11.756;2023-06-22T05:58:59;26.20;74.10
55313;DHT22;46892;45.668;11.756;2023-06-22T06:01:25;26.30;73.80
55313;DHT22;46892;45.668;11.756;2023-06-22T06:03:54;26.40;73.40
55313;DHT22;46892;45.668;11.756;2023-06-22T06:06:19;26.50;72.00
55313;DHT22;46892;45.668;11.756;2023-06-22T06:08:54;26.60;71.80
55313;DHT22;46892;45.668;11.756;2023-06-22T06:11:19;26.70;72.60
55313;DHT22;46892;45.668;11.756;2023-06-22T06:13:45;26.70;72.80
55313;DHT22;46892;45.668;11.756;2023-06-22T06:16:11;26.80;73.60
55313;DHT22;46892;45.668;11.756;2023-06-22T06:18:36;27.00;73.10
55313;DHT22;46892;45.668;11.756;2023-06-22T06:21:03;27.10;73.30
55313;DHT22;46892;45.668;11.756;2023-06-22T06:23:28;27.10;74.30
55313;DHT22;46892;45.668;11.756;2023-06-22T06:25:54;27.10;72.60
55313;DHT22;46892;45.668;11.756;2023-06-22T06:28:20;27.20;72.40
55313;DHT22;46892;45.668;11.756;2023-06-22T06:30:46;27.30;71.60
55313;DHT22;46892;45.668;11.756;2023-06-22T06:33:12;27.30;70.60
55313;DHT22;46892;45.668;11.756;2023-06-22T06:35:38;27.30;70.20
55313;DHT22;46892;45.668;11.756;2023-06-22T06:38:04;27.30;70.60
55313;DHT22;46892;45.668;11.756;2023-06-22T06:40:30;27.30;70.50
55313;DHT22;46892;45.668;11.756;2023-06-22T06:42:56;27.30;71.10
55313;DHT22;46892;45.668;11.756;2023-06-22T06:45:23;27.20;70.60
55313;DHT22;46892;45.668;11.756;2023-06-22T06:47:50;27.20;71.20
55313;DHT22;46892;45.668;11.756;2023-06-22T06:50:16;27.20;73.30
55313;DHT22;46892;45.668;11.756;2023-06-22T06:52:42;27.20;72.80
55313;DHT22;46892;45.668;11.756;2023-06-22T06:55:09;27.30;71.00
55313;DHT22;46892;45.668;11.756;2023-06-22T06:57:38;27.30;71.00
55313;DHT22;46892;45.668;11.756;2023-06-22T07:00:13;27.30;71.00
55313;DHT22;46892;45.668;11.756;2023-06-22T07:02:40;27.50;70.10
55313;DHT22;46892;45.668;11.756;2023-06-22T07:05:07;27.50;70.40
55313;DHT22;46892;45.668;11.756;2023-06-22T07:07:33;27.50;71.00
55313;DHT22;46892;45.668;11.756;2023-06-22T07:09:59;27.60;69.60
55313;DHT22;46892;45.668;11.756;2023-06-22T07:12:25;27.60;70.30
55313;DHT22;46892;45.668;11.756;2023-06-22T07:14:52;27.70;71.40
55313;DHT22;46892;45.668;11.756;2023-06-22T07:17:17;27.80;70.70
55313;DHT22;46892;45.668;11.756;2023-06-22T07:19:43;27.80;70.40
55313;DHT22;46892;45.668;11.756;2023-06-22T07:22:09;27.90;69.10
55313;DHT22;46892;45.668;11.756;2023-06-22T07:24:34;27.90;70.10
55313;DHT22;46892;45.668;11.756;2023-06-22T07:27:00;28.00;69.60
55313;DHT22;46892;45.668;11.756;2023-06-22T07:29:27;28.00;70.20
55313;DHT22;46892;45.668;11.756;2023-06-22T07:31:53;28.10;70.50
55313;DHT22;46892;45.668;11.756;2023-06-22T07:34:21;28.10;71.70
55313;DHT22;46892;45.668;11.756;2023-06-22T07:36:47;28.20;70.80
55313;DHT22;46892;45.668;11.756;2023-06-22T07:39:13;28.40;69.50
55313;DHT22;46892;45.668;11.756;2023-06-22T07:41:40;28.50;69.00
55313;DHT22;46892;45.668;11.756;2023-06-22T07:44:08;28.70;68.90
55313;DHT22;46892;45.668;11.756;2023-06-22T07:46:34;28.90;68.90
55313;DHT22;46892;45.668;11.756;2023-06-22T07:49:00;29.10;68.90
55313;DHT22;46892;45.668;11.756;2023-06-22T07:51:26;29.10;65.90
55313;DHT22;46892;45.668;11.756;2023-06-22T07:53:52;29.20;66.60
55313;DHT22;46892;45.668;11.756;2023-06-22T07:56:18;29.10;66.90
55313;DHT22;46892;45.668;11.756;2023-06-22T07:58:47;29.10;68.00
55313;DHT22;46892;45.668;11.756;2023-06-22T08:01:16;29.20;66.20
55313;DHT22;46892;45.668;11.756;2023-06-22T08:03:42;29.20;67.10
55313;DHT22;46892;45.668;11.756;2023-06-22T08:06:09;29.30;64.90
55313;DHT22;46892;45.668;11.756;2023-06-22T08:08:38;29.30;63.80
55313;DHT22;46892;45.668;11.756;2023-06-22T08:11:04;29.30;64.00
55313;DHT22;46892;45.668;11.756;2023-06-22T08:13:31;29.20;65.00
55313;DHT22;46892;45.668;11.756;2023-06-22T08:15:57;29.20;67.40
55313;DHT22;46892;45.668;11.756;2023-06-22T08:18:23;29.30;68.30
55313;DHT22;46892;45.668;11.756;2023-06-22T08:20:49;29.30;68.20
55313;DHT22;46892;45.668;11.756;2023-06-22T08:23:15;29.50;67.90
55313;DHT22;46892;45.668;11.756;2023-06-22T08:25:41;29.60;68.20
55313;DHT22;46892;45.668;11.756;2023-06-22T08:28:06;29.60;67.40
55313;DHT22;46892;45.668;11.756;2023-06-22T08:30:32;29.70;64.40
55313;DHT22;46892;45.668;11.756;2023-06-22T08:32:58;29.70;66.30
55313;DHT22;46892;45.668;11.756;2023-06-22T08:35:24;29.60;63.70
55313;DHT22;46892;45.668;11.756;2023-06-22T08:37:50;29.60;64.00
55313;DHT22;46892;45.668;11.756;2023-06-22T08:40:20;29.50;64.60
55313;DHT22;46892;45.668;11.756;2023-06-22T08:42:46;29.60;66.30
55313;DHT22;46892;45.668;11.756;2023-06-22T08:45:13;29.60;64.00
55313;DHT22;46892;45.668;11.756;2023-06-22T08:47:40;29.50;64.50
55313;DHT22;46892;45.668;11.756;2023-06-22T08:50:07;29.60;65.90
55313;DHT22;46892;45.668;11.756;2023-06-22T08:52:34;29.60;67.00
55313;DHT22;46892;45.668;11.756;2023-06-22T08:55:00;29.60;66.90
55313;DHT22;46892;45.668;11.756;2023-06-22T08:57:26;29.70;65.80
55313;DHT22;46892;45.668;11.756;2023-06-22T08:59:52;29.70;65.60
55313;DHT22;46892;45.668;11.756;2023-06-22T09:02:18;29.70;65.70
55313;DHT22;46892;45.668;11.756;2023-06-22T09:04:46;29.70;66.80
55313;DHT22;46892;45.668;11.756;2023-06-22T09:07:11;29.70;66.70
55313;DHT22;46892;45.668;11.756;2023-06-22T09:09:37;29.80;67.20
55313;DHT22;46892;45.668;11.756;2023-06-22T09:12:03;29.90;66.90
55313;DHT22;46892;45.668;11.756;2023-06-22T09:14:29;30.00;66.00
55313;DHT22;46892;45.668;11.756;2023-06-22T09:16:55;30.20;65.40
55313;DHT22;46892;45.668;11.756;2023-06-22T09:19:21;30.20;65.30
55313;DHT22;46892;45.668;11.756;2023-06-22T09:21:46;30.40;66.30
55313;DHT22;46892;45.668;11.756;2023-06-22T09:24:12;30.40;65.10
55313;DHT22;46892;45.668;11.756;2023-06-22T09:26:39;30.60;65.50
55313;DHT22;46892;45.668;11.756;2023-06-22T09:29:05;30.70;62.90
55313;DHT22;46892;45.668;11.756;2023-06-22T09:31:31;30.80;61.40
55313;DHT22;46892;45.668;11.756;2023-06-22T09:33:57;30.90;60.80
55313;DHT22;46892;45.668;11.756;2023-06-22T09:36:23;31.10;61.10
55313;DHT22;46892;45.668;11.756;2023-06-22T09:38:49;31.20;59.80
55313;DHT22;46892;45.668;11.756;2023-06-22T09:41:21;31.20;55.40
55313;DHT22;46892;45.668;11.756;2023-06-22T09:43:47;31.20;58.80
55313;DHT22;46892;45.668;11.756;2023-06-22T09:46:15;31.20;59.50
55313;DHT22;46892;45.668;11.756;2023-06-22T09:48:41;31.20;57.60
55313;DHT22;46892;45.668;11.756;2023-06-22T09:51:06;31.20;58.80
55313;DHT22;46892;45.668;11.756;2023-06-22T09:53:32;31.30;60.60
55313;DHT22;46892;45.668;11.756;2023-06-22T09:56:02;31.30;59.10
55313;DHT22;46892;45.668;11.756;2023-06-22T09:58:28;31.40;56.00
55313;DHT22;46892;45.668;11.756;2023-06-22T10:00:53;31.40;57.10
55313;DHT22;46892;45.668;11.756;2023-06-22T10:03:20;31.40;58.70
55313;DHT22;46892;45.668;11.756;2023-06-22T10:05:46;31.50;57.70
55313;DHT22;46892;45.668;11.756;2023-06-22T10:08:12;31.40;57.30
55313;DHT22;46892;45.668;11.756;2023-06-22T10:10:38;31.50;58.70
55313;DHT22;46892;45.668;11.756;2023-06-22T10:13:10;31.40;57.10
55313;DHT22;46892;45.668;11.756;2023-06-22T10:15:37;31.20;55.70
55313;DHT22;46892;45.668;11.756;2023-06-22T10:18:03;31.20;55.20
55313;DHT22;46892;45.668;11.756;2023-06-22T10:20:28;31.20;51.60
55313;DHT22;46892;45.668;11.756;2023-06-22T10:22:54;31.10;52.80
55313;DHT22;46892;45.668;11.756;2023-06-22T10:25:21;31.20;56.30
55313;DHT22;46892;45.668;11.756;2023-06-22T10:27:47;31.20;56.20
55313;DHT22;46892;45.668;11.756;2023-06-22T10:30:13;31.20;57.30
55313;DHT22;46892;45.668;11.756;2023-06-22T10:32:40;31.50;57.60
55313;DHT22;46892;45.668;11.756;2023-06-22T10:35:06;31.50;55.70
55313;DHT22;46892;45.668;11.756;2023-06-22T10:37:32;31.50;56.40
55313;DHT22;46892;45.668;11.756;2023-06-22T10:39:58;31.50;52.60
55313;DHT22;46892;45.668;11.756;2023-06-22T10:42:24;31.50;54.90
55313;DHT22;46892;45.668;11.756;2023-06-22T10:44:50;31.50;51.90
55313;DHT22;46892;45.668;11.756;2023-06-22T10:47:16;31.50;53.30
55313;DHT22;46892;45.668;11.756;2023-06-22T10:49:41;31.50;55.30
55313;DHT22;46892;45.668;11.756;2023-06-22T10:52:08;31.60;53.80
55313;DHT22;46892;45.668;11.756;2023-06-22T10:54:35;31.60;56.60
55313;DHT22;46892;45.668;11.756;2023-06-22T10:57:01;31.50;53.30
55313;DHT22;46892;45.668;11.756;2023-06-22T10:59:27;31.60;53.50
55313;DHT22;46892;45.668;11.756;2023-06-22T11:01:55;31.70;55.40
55313;DHT22;46892;45.668;11.756;2023-06-22T11:04:21;31.60;56.10
55313;DHT22;46892;45.668;11.756;2023-06-22T11:06:48;31.70;52.60
55313;DHT22;46892;45.668;11.756;2023-06-22T11:09:14;31.70;52.10
55313;DHT22;46892;45.668;11.756;2023-06-22T11:11:45;31.70;56.20
55313;DHT22;46892;45.668;11.756;2023-06-22T11:14:11;31.70;53.90
55313;DHT22;46892;45.668;11.756;2023-06-22T11:16:36;31.80;54.60
55313;DHT22;46892;45.668;11.756;2023-06-22T11:19:04;31.80;52.30
55313;DHT22;46892;45.668;11.756;2023-06-22T11:21:30;31.90;50.60
55313;DHT22;46892;45.668;11.756;2023-06-22T11:23:57;31.90;50.90
55313;DHT22;46892;45.668;11.756;2023-06-22T11:26:22;31.80;47.20
55313;DHT22;46892;45.668;11.756;2023-06-22T11:28:48;31.80;50.30
55313;DHT22;46892;45.668;11.756;2023-06-22T11:31:14;31.80;49.50
55313;DHT22;46892;45.668;11.756;2023-06-22T11:33:40;31.90;52.60
55313;DHT22;46892;45.668;11.756;2023-06-22T11:36:06;31.80;51.80
55313;DHT22;46892;45.668;11.756;2023-06-22T11:38:31;31.90;51.30
55313;DHT22;46892;45.668;11.756;2023-06-22T11:40:58;32.00;52.30
55313;DHT22;46892;45.668;11.756;2023-06-22T11:43:24;32.00;50.70
55313;DHT22;46892;45.668;11.756;2023-06-22T11:45:50;32.10;51.70
55313;DHT22;46892;45.668;11.756;2023-06-22T11:48:16;32.20;51.50
55313;DHT22;46892;45.668;11.756;2023-06-22T11:50:42;32.20;52.10
55313;DHT22;46892;45.668;11.756;2023-06-22T11:53:07;32.20;51.00
55313;DHT22;46892;45.668;11.756;2023-06-22T11:55:33;32.20;51.40
55313;DHT22;46892;45.668;11.756;2023-06-22T11:57:59;32.20;48.50
55313;DHT22;46892;45.668;11.756;2023-06-22T12:00:29;32.30;48.00
55313;DHT22;46892;45.668;11.756;2023-06-22T12:02:55;32.30;48.50
55313;DHT22;46892;45.668;11.756;2023-06-22T12:05:22;32.40;47.20
55313;DHT22;46892;45.668;11.756;2023-06-22T12:07:48;32.50;48.10
55313;DHT22;46892;45.668;11.756;2023-06-22T12:10:14;32.60;47.00
55313;DHT22;46892;45.668;11.756;2023-06-22T12:12:41;32.70;47.60
55313;DHT22;46892;45.668;11.756;2023-06-22T12:15:07;32.70;47.00
55313;DHT22;46892;45.668;11.756;2023-06-22T12:17:34;32.70;47.70
55313;DHT22;46892;45.668;11.756;2023-06-22T12:20:00;32.60;48.50
55313;DHT22;46892;45.668;11.756;2023-06-22T12:22:25;32.70;49.00
55313;DHT22;46892;45.668;11.756;2023-06-22T12:24:51;32.70;49.10
55313;DHT22;46892;45.668;11.756;2023-06-22T12:27:17;32.80;50.40
55313;DHT22;46892;45.668;11.756;2023-06-22T12:29:46;32.90;47.20
55313;DHT22;46892;45.668;11.756;2023-06-22T12:32:13;33.00;47.80
55313;DHT22;46892;45.668;11.756;2023-06-22T12:34:39;32.80;49.40
55313;DHT22;46892;45.668;11.756;2023-06-22T12:37:05;32.80;47.60
55313;DHT22;46892;45.668;11.756;2023-06-22T12:39:32;32.70;48.90
55313;DHT22;46892;45.668;11.756;2023-06-22T12:41:57;32.80;50.70
55313;DHT22;46892;45.668;11.756;2023-06-22T12:44:24;32.80;49.00
55313;DHT22;46892;45.668;11.756;2023-06-22T12:46:50;32.80;51.00
55313;DHT22;46892;45.668;11.756;2023-06-22T12:49:16;32.90;49.40
55313;DHT22;46892;45.668;11.756;2023-06-22T12:51:43;32.90;48.80
55313;DHT22;46892;45.668;11.756;2023-06-22T12:54:09;32.90;50.30
55313;DHT22;46892;45.668;11.756;2023-06-22T12:56:35;32.90;49.70
55313;DHT22;46892;45.668;11.756;2023-06-22T12:59:01;33.10;47.40
55313;DHT22;46892;45.668;11.756;2023-06-22T13:01:30;33.10;49.00
55313;DHT22;46892;45.668;11.756;2023-06-22T13:03:58;33.20;48.30
55313;DHT22;46892;45.668;11.756;2023-06-22T13:06:24;33.20;48.70
55313;DHT22;46892;45.668;11.756;2023-06-22T13:08:49;33.20;47.70
55313;DHT22;46892;45.668;11.756;2023-06-22T13:11:15;33.30;48.70
55313;DHT22;46892;45.668;11.756;2023-06-22T13:13:41;33.20;46.20
55313;DHT22;46892;45.668;11.756;2023-06-22T13:16:07;33.10;48.10
55313;DHT22;46892;45.668;11.756;2023-06-22T13:18:33;33.20;51.70
55313;DHT22;46892;45.668;11.756;2023-06-22T13:21:01;33.10;49.50
55313;DHT22;46892;45.668;11.756;2023-06-22T13:23:27;33.10;51.10
55313;DHT22;46892;45.668;11.756;2023-06-22T13:25:53;33.00;48.20
55313;DHT22;46892;45.668;11.756;2023-06-22T13:28:19;32.90;48.80
55313;DHT22;46892;45.668;11.756;2023-06-22T13:30:46;32.70;47.10
55313;DHT22;46892;45.668;11.756;2023-06-22T13:33:13;32.60;48.30
55313;DHT22;46892;45.668;11.756;2023-06-22T13:35:39;32.50;49.10
55313;DHT22;46892;45.668;11.756;2023-06-22T13:38:05;32.60;48.20
55313;DHT22;46892;45.668;11.756;2023-06-22T13:40:31;32.60;48.00
55313;DHT22;46892;45.668;11.756;2023-06-22T13:42:56;32.60;49.80
55313;DHT22;46892;45.668;11.756;2023-06-22T13:45:22;32.70;49.70
55313;DHT22;46892;45.668;11.756;2023-06-22T13:47:48;32.80;51.10
55313;DHT22;46892;45.668;11.756;2023-06-22T13:50:14;33.00;51.80
55313;DHT22;46892;45.668;11.756;2023-06-22T13:52:40;33.10;48.60
55313;DHT22;46892;45.668;11.756;2023-06-22T13:55:06;33.20;48.40
55313;DHT22;46892;45.668;11.756;2023-06-22T13:57:33;33.20;48.80
55313;DHT22;46892;45.668;11.756;2023-06-22T13:59:59;33.20;47.90
55313;DHT22;46892;45.668;11.756;2023-06-22T14:02:28;33.20;47.90
55313;DHT22;46892;45.668;11.756;2023-06-22T14:04:54;33.30;47.30
55313;DHT22;46892;45.668;11.756;2023-06-22T14:07:19;33.50;48.10
55313;DHT22;46892;45.668;11.756;2023-06-22T14:09:46;33.40;48.90
55313;DHT22;46892;45.668;11.756;2023-06-22T14:12:12;33.30;47.70
55313;DHT22;46892;45.668;11.756;2023-06-22T14:14:38;33.30;49.40
55313;DHT22;46892;45.668;11.756;2023-06-22T14:17:04;33.30;49.50
55313;DHT22;46892;45.668;11.756;2023-06-22T14:19:30;33.20;50.60
55313;DHT22;46892;45.668;11.756;2023-06-22T14:21:56;33.20;50.40
55313;DHT22;46892;45.668;11.756;2023-06-22T14:24:23;33.20;50.30
55313;DHT22;46892;45.668;11.756;2023-06-22T14:26:49;33.20;49.50
55313;DHT22;46892;45.668;11.756;2023-06-22T14:29:15;33.10;50.10
55313;DHT22;46892;45.668;11.756;2023-06-22T14:31:40;33.20;52.90
55313;DHT22;46892;45.668;11.756;2023-06-22T14:34:06;33.10;51.60
55313;DHT22;46892;45.668;11.756;2023-06-22T14:36:32;33.10;52.90
55313;DHT22;46892;45.668;11.756;2023-06-22T14:38:58;33.10;52.50
55313;DHT22;46892;45.668;11.756;2023-06-22T14:41:23;33.00;53.00
55313;DHT22;46892;45.668;11.756;2023-06-22T14:43:50;32.90;52.80
55313;DHT22;46892;45.668;11.756;2023-06-22T14:46:17;32.80;54.00
55313;DHT22;46892;45.668;11.756;2023-06-22T14:48:43;32.80;52.50
55313;DHT22;46892;45.668;11.756;2023-06-22T14:51:10;32.80;55.60
55313;DHT22;46892;45.668;11.756;2023-06-22T14:53:36;32.70;54.10
55313;DHT22;46892;45.668;11.756;2023-06-22T14:56:02;32.80;53.20
55313;DHT22;46892;45.668;11.756;2023-06-22T14:58:31;32.80;54.70
55313;DHT22;46892;45.668;11.756;2023-06-22T15:01:04;32.80;53.10
55313;DHT22;46892;45.668;11.756;2023-06-22T15:03:31;33.00;55.50
55313;DHT22;46892;45.668;11.756;2023-06-22T15:05:58;33.00;54.20
55313;DHT22;46892;45.668;11.756;2023-06-22T15:08:24;33.10;56.40
55313;DHT22;46892;45.668;11.756;2023-06-22T15:10:52;33.10;51.90
55313;DHT22;46892;45.668;11.756;2023-06-22T15:13:18;33.20;52.40
55313;DHT22;46892;45.668;11.756;2023-06-22T15:15:47;33.20;53.10
55313;DHT22;46892;45.668;11.756;2023-06-22T15:18:16;33.20;51.40
55313;DHT22;46892;45.668;11.756;2023-06-22T15:20:43;33.20;52.60